Time;durP1;ratioP1;P1;durP2;ratioP2;P2;SDS_P1;SDS_P2;PMS_P1;PMS_P2;Temp;Humidity;BMP_temperature;BMP_pressure;BME280_temperature;BME280_humidity;BME280_pressure;Samples;Min_cycle;Max_cycle;Signal;HPM_P1;HPM_P2
2021/05/13 00:00:35;;;;;;;11.70;6.65;;;;;;;;;;5058998;28;20032;-88
2021/05/13 00:03:01;;;;;;;19.25;7.38;;;;;;;;;;5067987;28;20017;-88
2021/05/13 00:05:27;;;;;;;15.35;6.72;;;;;;;;;;5066822;28;20024;-89
2021/05/13 00:07:53;;;;;;;13.20;6.53;;;;;;;;;;5068431;28;20135;-89
2021/05/13 00:10:20;;;;;;;11.95;6.53;;;;;;;;;;5067009;28;20479;-89
2021/05/13 00:15:14;;;;;;;11.70;7.25;;;;;;;;;;5071555;28;20029;-89
2021/05/13 00:17:40;;;;;;;12.38;5.75;;;;;;;;;;5065341;28;20471;-89
2021/05/13 00:20:08;;;;;;;14.95;7.10;;;;;;;;;;5061286;28;20029;-89
2021/05/13 00:22:35;;;;;;;10.80;6.43;;;;;;;;;;5073927;28;20025;-89
2021/05/13 00:25:01;;;;;;;13.48;7.05;;;;;;;;;;5055756;28;20075;-89
2021/05/13 00:27:27;;;;;;;12.38;6.78;;;;;;;;;;5067250;28;20136;-89
2021/05/13 00:29:53;;;;;;;12.88;6.85;;;;;;;;;;5061749;28;20104;-89
2021/05/13 00:32:19;;;;;;;14.68;6.80;;;;;;;;;;5057382;28;20025;-89
2021/05/13 00:34:45;;;;;;;15.32;6.55;;;;;;;;;;5069336;28;20090;-89
2021/05/13 00:37:11;;;;;;;17.67;7.13;;;;;;;;;;5070996;28;20186;-89
2021/05/13 00:39:36;;;;;;;10.95;6.18;;;;;;;;;;5073475;28;20055;-89
2021/05/13 00:42:02;;;;;;;12.82;6.20;;;;;;;;;;5058598;28;20044;-89
2021/05/13 00:44:28;;;;;;;15.75;7.25;;;;;;;;;;5056032;28;20392;-89
2021/05/13 00:46:54;;;;;;;13.63;7.30;;;;;;;;;;5067527;28;20028;-89
2021/05/13 00:49:22;;;;;;;16.05;7.30;;;;;;;;;;5065052;28;20029;-89
2021/05/13 00:51:48;;;;;;;12.48;6.78;;;;;;;;;;5067045;28;20032;-89
2021/05/13 00:54:14;;;;;;;11.55;7.00;;;;;;;;;;5074465;28;20032;-89
2021/05/13 00:56:40;;;;;;;12.30;7.13;;;;;;;;;;5057840;28;20576;-89
2021/05/13 00:59:08;;;;;;;17.40;7.50;;;;;;;;;;5070059;28;20025;-89
2021/05/13 01:04:09;;;;;;;18.55;9.07;;;;;;;;;;5069872;28;20476;-87
2021/05/13 01:06:35;;;;;;;17.30;7.32;;;;;;;;;;5065364;28;20028;-87
2021/05/13 01:09:06;;;;;;;16.25;8.50;;;;;;;;;;5055908;28;20025;-87
2021/05/13 01:11:32;;;;;;;21.77;9.32;;;;;;;;;;5068140;28;20048;-87
2021/05/13 01:14:03;;;;;;;12.60;8.43;;;;;;;;;;5060122;28;20033;-87
2021/05/13 01:16:50;;;;;;;16.98;9.60;;;;;;;;;;5056545;28;20435;-87
2021/05/13 01:19:17;;;;;;;11.95;9.13;;;;;;;;;;5057918;28;20037;-87
2021/05/13 01:21:43;;;;;;;13.02;9.15;;;;;;;;;;5071749;28;20035;-87
2021/05/13 01:24:09;;;;;;;14.75;9.07;;;;;;;;;;5067859;28;20486;-87
2021/05/13 01:26:35;;;;;;;18.35;9.23;;;;;;;;;;5051974;28;20186;-87
2021/05/13 01:29:02;;;;;;;12.52;8.55;;;;;;;;;;5064988;28;20059;-87
2021/05/13 01:31:28;;;;;;;17.50;8.30;;;;;;;;;;5052627;28;20029;-87
2021/05/13 01:33:54;;;;;;;14.35;8.77;;;;;;;;;;5051551;28;20120;-87
2021/05/13 01:36:20;;;;;;;20.65;9.45;;;;;;;;;;5064058;28;20120;-87
2021/05/13 01:38:46;;;;;;;13.32;8.60;;;;;;;;;;5061051;28;20021;-87
2021/05/13 01:41:12;;;;;;;18.52;9.45;;;;;;;;;;5054961;28;20071;-87
2021/05/13 01:43:38;;;;;;;14.35;8.23;;;;;;;;;;5060361;28;20094;-87
2021/05/13 01:46:04;;;;;;;13.23;8.73;;;;;;;;;;5051275;28;20120;-87
2021/05/13 01:48:31;;;;;;;18.92;10.02;;;;;;;;;;5057248;28;20024;-87
2021/05/13 01:50:57;;;;;;;20.88;10.10;;;;;;;;;;5069970;28;20032;-88
2021/05/13 01:53:24;;;;;;;16.88;10.75;;;;;;;;;;5066205;28;20025;-87
2021/05/13 01:55:50;;;;;;;17.55;9.00;;;;;;;;;;5071262;28;20123;-87
2021/05/13 01:58:16;;;;;;;17.27;10.10;;;;;;;;;;5059257;28;20127;-87
2021/05/13 02:00:44;;;;;;;17.67;9.30;;;;;;;;;;5054957;28;20021;-87
2021/05/13 02:03:10;;;;;;;18.42;9.90;;;;;;;;;;5062126;28;20167;-87
2021/05/13 02:05:36;;;;;;;17.27;9.95;;;;;;;;;;5066012;28;20033;-87
2021/05/13 02:08:03;;;;;;;16.13;9.30;;;;;;;;;;5069969;28;20471;-87
2021/05/13 02:10:29;;;;;;;13.95;9.02;;;;;;;;;;5069803;28;20024;-87
2021/05/13 02:12:56;;;;;;;13.10;8.68;;;;;;;;;;5050867;28;20021;-87
2021/05/13 02:15:23;;;;;;;16.20;9.63;;;;;;;;;;5059133;28;20024;-87
2021/05/13 02:17:49;;;;;;;13.15;8.68;;;;;;;;;;5055519;28;20028;-87
2021/05/13 02:20:19;;;;;;;16.73;9.85;;;;;;;;;;5059396;28;20025;-87
2021/05/13 02:22:45;;;;;;;17.67;8.82;;;;;;;;;;5069954;28;20025;-87
2021/05/13 02:25:11;;;;;;;15.68;8.52;;;;;;;;;;5052191;28;20053;-87
2021/05/13 02:27:38;;;;;;;14.57;8.98;;;;;;;;;;5029761;28;20063;-87
2021/05/13 02:30:05;;;;;;;14.45;8.43;;;;;;;;;;5024089;28;20399;-87
2021/05/13 02:32:31;;;;;;;13.77;7.97;;;;;;;;;;5018058;28;20542;-87
2021/05/13 02:34:57;;;;;;;14.32;8.50;;;;;;;;;;5021428;28;20091;-87
2021/05/13 02:37:23;;;;;;;12.02;7.63;;;;;;;;;;5033670;28;20032;-87
2021/05/13 02:39:49;;;;;;;15.80;8.25;;;;;;;;;;5024925;28;20052;-87
2021/05/13 02:42:15;;;;;;;12.50;8.02;;;;;;;;;;5028096;28;20186;-87
2021/05/13 02:44:41;;;;;;;19.90;8.98;;;;;;;;;;5024513;28;20029;-87
2021/05/13 02:47:07;;;;;;;16.90;8.75;;;;;;;;;;5023395;28;20095;-87
2021/05/13 02:49:33;;;;;;;22.13;8.85;;;;;;;;;;5022293;28;20033;-87
2021/05/13 02:51:59;;;;;;;15.57;8.00;;;;;;;;;;5038542;28;20424;-87
2021/05/13 02:54:25;;;;;;;16.80;9.18;;;;;;;;;;5027828;28;20040;-87
2021/05/13 02:56:51;;;;;;;15.73;8.70;;;;;;;;;;5029306;28;20068;-87
2021/05/13 02:59:18;;;;;;;14.05;8.32;;;;;;;;;;5038086;28;20369;-87
2021/05/13 03:01:44;;;;;;;15.32;8.65;;;;;;;;;;5024814;28;20024;-87
2021/05/13 03:04:10;;;;;;;14.50;9.20;;;;;;;;;;5033157;28;20106;-87
2021/05/13 03:06:39;;;;;;;15.43;9.77;;;;;;;;;;5030593;28;20179;-87
2021/05/13 03:09:05;;;;;;;13.85;9.35;;;;;;;;;;5021384;28;20037;-87
2021/05/13 03:11:32;;;;;;;14.73;8.48;;;;;;;;;;5023934;28;20033;-87
2021/05/13 03:14:01;;;;;;;18.55;8.82;;;;;;;;;;5014448;28;20497;-87
2021/05/13 03:16:27;;;;;;;18.15;9.32;;;;;;;;;;5022630;28;20496;-87
2021/05/13 03:18:55;;;;;;;12.93;8.40;;;;;;;;;;5025839;28;20037;-87
2021/05/13 03:21:38;;;;;;;14.82;8.80;;;;;;;;;;5033055;28;20032;-87
2021/05/13 03:29:17;;;;;;;18.10;8.98;;;;;;;;;;5040606;28;20116;-87
2021/05/13 03:31:44;;;;;;;13.63;8.82;;;;;;;;;;5032074;28;20057;-87
2021/05/13 03:34:10;;;;;;;21.80;8.55;;;;;;;;;;5032524;28;20128;-87
2021/05/13 03:36:36;;;;;;;13.50;8.60;;;;;;;;;;5036376;28;20029;-87
2021/05/13 03:39:07;;;;;;;14.48;7.88;;;;;;;;;;5026766;28;20028;-87
2021/05/13 03:41:33;;;;;;;14.32;8.45;;;;;;;;;;5023095;28;20461;-87
2021/05/13 03:43:59;;;;;;;15.38;8.15;;;;;;;;;;5016949;28;20036;-87
2021/05/13 03:46:25;;;;;;;19.40;8.30;;;;;;;;;;5033428;28;20556;-87
2021/05/13 03:48:51;;;;;;;16.17;8.35;;;;;;;;;;5017077;28;20481;-87
2021/05/13 03:51:17;;;;;;;16.92;7.90;;;;;;;;;;5034998;28;20120;-87
2021/05/13 03:53:44;;;;;;;19.83;9.02;;;;;;;;;;5019869;28;20454;-87
2021/05/13 03:56:12;;;;;;;18.45;9.15;;;;;;;;;;5017264;28;20460;-87
2021/05/13 03:58:45;;;;;;;17.00;9.25;;;;;;;;;;5032170;28;20032;-87
2021/05/13 04:01:15;;;;;;;18.42;8.32;;;;;;;;;;5046123;28;20033;-87
2021/05/13 04:03:41;;;;;;;16.90;7.43;;;;;;;;;;5025080;28;20498;-87
2021/05/13 04:06:07;;;;;;;17.77;8.35;;;;;;;;;;5028285;28;20028;-87
2021/05/13 04:08:33;;;;;;;12.13;8.05;;;;;;;;;;5017549;28;20055;-87
2021/05/13 04:10:59;;;;;;;18.38;7.90;;;;;;;;;;5047858;28;20029;-87
2021/05/13 04:13:26;;;;;;;14.40;8.32;;;;;;;;;;5036007;28;20027;-87
2021/05/13 04:15:53;;;;;;;13.27;7.60;;;;;;;;;;5035644;28;20033;-87
2021/05/13 04:18:19;;;;;;;14.55;7.68;;;;;;;;;;5027266;28;20025;-87
2021/05/13 04:20:45;;;;;;;15.95;7.90;;;;;;;;;;5029194;28;20025;-87
2021/05/13 04:23:11;;;;;;;12.63;6.75;;;;;;;;;;5017077;28;20080;-87
2021/05/13 04:25:38;;;;;;;19.38;7.63;;;;;;;;;;5047697;28;20107;-87
2021/05/13 04:28:04;;;;;;;11.85;7.55;;;;;;;;;;5056434;28;20500;-87
2021/05/13 04:30:31;;;;;;;14.43;7.72;;;;;;;;;;5061495;28;20544;-87
2021/05/13 04:32:57;;;;;;;13.07;7.68;;;;;;;;;;5052464;28;20121;-87
2021/05/13 04:35:23;;;;;;;16.52;8.60;;;;;;;;;;5068193;28;20115;-87
2021/05/13 04:37:49;;;;;;;14.82;7.18;;;;;;;;;;5063939;28;20029;-87
2021/05/13 04:40:15;;;;;;;12.18;7.32;;;;;;;;;;5053272;28;20035;-87
2021/05/13 04:42:41;;;;;;;15.90;8.00;;;;;;;;;;5066589;28;20473;-87
2021/05/13 04:45:08;;;;;;;16.70;7.10;;;;;;;;;;5064572;28;20031;-87
2021/05/13 04:50:10;;;;;;;16.27;8.55;;;;;;;;;;5055773;28;20055;-87
2021/05/13 04:52:39;;;;;;;11.75;7.75;;;;;;;;;;5052313;28;20112;-87
2021/05/13 04:55:07;;;;;;;10.30;6.88;;;;;;;;;;5054646;28;20082;-87
2021/05/13 04:57:33;;;;;;;15.63;7.78;;;;;;;;;;5062796;28;20119;-87
2021/05/13 05:00:02;;;;;;;12.45;7.28;;;;;;;;;;5055218;28;20052;-87
2021/05/13 05:02:29;;;;;;;12.57;7.30;;;;;;;;;;5064387;28;20047;-87
2021/05/13 05:04:54;;;;;;;15.85;7.57;;;;;;;;;;5064718;28;20123;-87
2021/05/13 05:07:20;;;;;;;14.93;7.60;;;;;;;;;;5060264;28;20465;-87
2021/05/13 05:09:46;;;;;;;14.45;7.38;;;;;;;;;;5071165;28;20060;-87
2021/05/13 05:12:14;;;;;;;14.48;8.38;;;;;;;;;;5064761;28;20029;-87
2021/05/13 05:14:40;;;;;;;14.07;8.68;;;;;;;;;;5052325;28;20028;-87
2021/05/13 05:17:06;;;;;;;16.00;8.07;;;;;;;;;;5056138;28;20017;-87
2021/05/13 05:19:32;;;;;;;13.73;8.25;;;;;;;;;;5061220;28;20035;-87
2021/05/13 05:21:58;;;;;;;16.80;8.98;;;;;;;;;;5062972;28;20029;-87
2021/05/13 05:24:24;;;;;;;12.75;8.32;;;;;;;;;;5055411;28;20372;-87
2021/05/13 05:26:50;;;;;;;18.50;8.63;;;;;;;;;;5067834;28;20063;-87
2021/05/13 05:29:16;;;;;;;15.02;8.85;;;;;;;;;;5070458;28;20028;-87
2021/05/13 05:31:42;;;;;;;12.27;8.60;;;;;;;;;;5068539;28;20036;-87
2021/05/13 05:34:08;;;;;;;16.30;8.82;;;;;;;;;;5068535;28;20090;-87
2021/05/13 05:36:34;;;;;;;15.13;8.50;;;;;;;;;;5066040;28;20479;-87
2021/05/13 05:39:01;;;;;;;17.40;9.25;;;;;;;;;;5071440;28;20032;-87
2021/05/13 05:41:26;;;;;;;16.15;9.63;;;;;;;;;;5065533;28;20024;-87
2021/05/13 05:43:53;;;;;;;14.18;8.80;;;;;;;;;;5057243;28;20025;-87
2021/05/13 05:46:18;;;;;;;17.23;9.85;;;;;;;;;;5056175;28;20379;-87
2021/05/13 05:48:45;;;;;;;16.58;9.90;;;;;;;;;;5071113;28;20031;-87
2021/05/13 05:51:11;;;;;;;16.88;9.80;;;;;;;;;;5061425;28;20025;-87
2021/05/13 05:53:37;;;;;;;14.32;9.15;;;;;;;;;;5063122;28;20123;-87
2021/05/13 05:56:03;;;;;;;20.70;9.65;;;;;;;;;;5053303;28;20119;-87
2021/05/13 05:58:29;;;;;;;16.58;9.20;;;;;;;;;;5056679;28;20060;-87
2021/05/13 06:00:55;;;;;;;19.50;9.50;;;;;;;;;;5061845;28;20165;-87
2021/05/13 06:03:21;;;;;;;11.20;8.15;;;;;;;;;;5061999;28;20033;-85
2021/05/13 06:05:47;;;;;;;17.58;10.15;;;;;;;;;;5061568;28;20029;-85
2021/05/13 06:08:13;;;;;;;17.38;10.60;;;;;;;;;;5056178;28;20112;-85
2021/05/13 06:10:39;;;;;;;15.40;9.23;;;;;;;;;;5077332;28;20056;-86
2021/05/13 06:13:07;;;;;;;13.57;9.50;;;;;;;;;;5067977;28;20139;-86
2021/05/13 06:15:33;;;;;;;15.48;9.25;;;;;;;;;;5071066;28;20059;-85
2021/05/13 06:17:59;;;;;;;15.52;9.05;;;;;;;;;;5054373;28;20031;-85
2021/05/13 06:20:26;;;;;;;18.23;9.45;;;;;;;;;;5063488;28;20119;-85
2021/05/13 06:22:53;;;;;;;16.67;8.75;;;;;;;;;;5053766;28;20036;-85
2021/05/13 06:25:19;;;;;;;17.42;9.50;;;;;;;;;;5046761;28;20048;-85
2021/05/13 06:27:45;;;;;;;12.38;9.20;;;;;;;;;;5020247;28;20493;-87
2021/05/13 06:30:14;;;;;;;13.68;8.88;;;;;;;;;;5026402;28;20128;-88
2021/05/13 06:32:40;;;;;;;13.93;9.20;;;;;;;;;;5019050;28;20116;-85
2021/05/13 06:35:06;;;;;;;17.75;8.63;;;;;;;;;;5038101;28;20032;-85
2021/05/13 06:37:32;;;;;;;19.20;8.93;;;;;;;;;;5031632;28;20040;-86
2021/05/13 06:39:58;;;;;;;15.65;8.45;;;;;;;;;;5016211;28;20071;-83
2021/05/13 06:42:25;;;;;;;13.48;7.88;;;;;;;;;;5021253;28;20029;-88
2021/05/13 06:44:51;;;;;;;13.10;7.75;;;;;;;;;;5039468;28;20030;-86
2021/05/13 06:47:17;;;;;;;13.15;7.65;;;;;;;;;;5024712;28;20029;-86
2021/05/13 06:49:43;;;;;;;12.13;7.78;;;;;;;;;;5031853;28;20029;-85
2021/05/13 06:52:09;;;;;;;12.45;7.00;;;;;;;;;;5031504;28;20051;-88
2021/05/13 06:54:35;;;;;;;13.05;7.18;;;;;;;;;;5021085;28;20033;-87
2021/05/13 06:57:02;;;;;;;12.98;7.95;;;;;;;;;;5030047;28;20052;-87
2021/05/13 06:59:28;;;;;;;14.10;7.40;;;;;;;;;;5022640;28;20021;-87
2021/05/13 07:01:55;;;;;;;12.60;8.00;;;;;;;;;;5030708;28;20029;-87
2021/05/13 07:04:21;;;;;;;12.55;7.32;;;;;;;;;;5035084;28;20842;-87
2021/05/13 07:06:47;;;;;;;14.73;6.82;;;;;;;;;;5027627;28;20127;-87
2021/05/13 07:09:13;;;;;;;12.40;7.20;;;;;;;;;;5017722;28;20080;-88
2021/05/13 07:11:40;;;;;;;16.42;7.85;;;;;;;;;;5026493;28;20098;-89
2021/05/13 07:14:06;;;;;;;9.63;6.90;;;;;;;;;;5025587;28;20037;-87
2021/05/13 07:16:33;;;;;;;12.00;7.30;;;;;;;;;;5015891;28;20034;-87
2021/05/13 07:18:59;;;;;;;10.90;6.72;;;;;;;;;;5026972;28;20479;-88
2021/05/13 07:21:26;;;;;;;12.10;7.25;;;;;;;;;;5035111;28;20030;-88
2021/05/13 07:23:52;;;;;;;12.70;6.88;;;;;;;;;;5016128;28;20025;-87
2021/05/13 07:26:18;;;;;;;12.38;6.63;;;;;;;;;;5065326;28;20051;-88
2021/05/13 07:28:44;;;;;;;12.77;7.03;;;;;;;;;;5058681;28;20021;-87
2021/05/13 07:31:10;;;;;;;11.00;6.18;;;;;;;;;;5059857;28;20025;-87
2021/05/13 07:33:38;;;;;;;12.90;6.55;;;;;;;;;;5065498;28;20071;-87
2021/05/13 07:36:07;;;;;;;8.27;5.78;;;;;;;;;;5070207;28;20152;-87
2021/05/13 07:38:34;;;;;;;11.18;6.18;;;;;;;;;;5063003;28;20483;-88
2021/05/13 07:41:02;;;;;;;12.35;6.93;;;;;;;;;;5072235;28;20124;-88
2021/05/13 07:43:29;;;;;;;11.15;6.55;;;;;;;;;;5071797;28;20025;-88
2021/05/13 07:45:55;;;;;;;12.13;6.63;;;;;;;;;;5088356;28;20475;-87
2021/05/13 07:48:21;;;;;;;11.73;6.40;;;;;;;;;;5075718;28;20031;-88
2021/05/13 07:50:47;;;;;;;8.55;6.40;;;;;;;;;;5067860;28;20037;-85
2021/05/13 07:53:13;;;;;;;9.73;6.25;;;;;;;;;;5074936;28;20091;-90
2021/05/13 07:55:39;;;;;;;10.02;6.43;;;;;;;;;;5067425;28;20028;-85
2021/05/13 07:58:06;;;;;;;9.55;6.20;;;;;;;;;;5075229;28;20086;-86
2021/05/13 08:00:32;;;;;;;10.05;6.13;;;;;;;;;;5062855;28;20091;-87
2021/05/13 08:02:58;;;;;;;9.20;6.05;;;;;;;;;;5067017;28;20020;-88
2021/05/13 08:05:24;;;;;;;11.30;6.20;;;;;;;;;;5063161;28;20020;-87
2021/05/13 08:07:58;;;;;;;7.43;5.32;;;;;;;;;;5070805;28;20043;-87
2021/05/13 08:10:24;;;;;;;10.68;6.18;;;;;;;;;;5059095;28;20143;-88
2021/05/13 08:12:50;;;;;;;9.07;5.43;;;;;;;;;;5074050;28;20063;-88
2021/05/13 08:15:16;;;;;;;7.32;5.13;;;;;;;;;;5074797;28;20105;-88
2021/05/13 08:17:42;;;;;;;8.73;5.53;;;;;;;;;;5074747;28;20111;-87
2021/05/13 08:20:10;;;;;;;8.02;5.32;;;;;;;;;;5060326;28;20036;-87
2021/05/13 08:22:36;;;;;;;6.03;4.70;;;;;;;;;;5054442;28;20558;-88
2021/05/13 08:25:06;;;;;;;9.55;5.07;;;;;;;;;;5072833;28;20045;-85
2021/05/13 08:27:32;;;;;;;5.88;3.97;;;;;;;;;;5062661;28;20032;-88
2021/05/13 08:29:59;;;;;;;6.85;4.30;;;;;;;;;;5074818;28;20074;-88
2021/05/13 08:32:25;;;;;;;6.70;4.22;;;;;;;;;;5070002;28;20029;-86
2021/05/13 08:34:53;;;;;;;6.75;4.38;;;;;;;;;;5067476;28;20036;-86
2021/05/13 08:37:19;;;;;;;7.95;4.53;;;;;;;;;;5059993;28;20021;-87
2021/05/13 08:39:45;;;;;;;7.82;3.88;;;;;;;;;;5063631;28;20078;-87
2021/05/13 08:42:12;;;;;;;6.10;3.95;;;;;;;;;;5069198;28;20031;-88
2021/05/13 08:44:42;;;;;;;7.20;4.20;;;;;;;;;;5074124;28;20480;-86
2021/05/13 08:47:08;;;;;;;5.15;3.88;;;;;;;;;;5057842;28;20029;-86
2021/05/13 08:49:35;;;;;;;5.85;3.97;;;;;;;;;;5074578;28;20028;-86
2021/05/13 08:52:01;;;;;;;4.53;3.33;;;;;;;;;;5074529;28;20080;-88
2021/05/13 08:54:28;;;;;;;5.18;4.00;;;;;;;;;;5063019;28;20025;-87
2021/05/13 08:56:54;;;;;;;5.75;3.65;;;;;;;;;;5056595;28;20032;-87
2021/05/13 08:59:21;;;;;;;5.38;3.42;;;;;;;;;;5056347;28;20028;-86
2021/05/13 09:01:57;;;;;;;5.68;3.80;;;;;;;;;;5054296;28;20108;-86
2021/05/13 09:04:23;;;;;;;5.30;3.42;;;;;;;;;;5054013;28;20044;-86
2021/05/13 09:06:49;;;;;;;6.32;3.63;;;;;;;;;;5059457;28;20083;-86
2021/05/13 09:09:16;;;;;;;5.50;3.95;;;;;;;;;;5068490;28;20029;-86
2021/05/13 09:11:53;;;;;;;8.30;4.03;;;;;;;;;;5063248;28;20024;-86
2021/05/13 09:14:27;;;;;;;6.47;3.75;;;;;;;;;;5057699;28;20031;-85
2021/05/13 09:16:54;;;;;;;5.72;4.05;;;;;;;;;;5055943;28;20388;-86
2021/05/13 09:19:27;;;;;;;5.00;3.72;;;;;;;;;;5057971;28;20119;-85
2021/05/13 09:21:58;;;;;;;5.18;3.60;;;;;;;;;;5054711;28;20070;-85
2021/05/13 09:24:43;;;;;;;6.82;3.90;;;;;;;;;;5061043;28;20109;-85
2021/05/13 09:27:19;;;;;;;5.50;3.75;;;;;;;;;;5038142;28;20025;-87
2021/05/13 09:29:46;;;;;;;6.88;4.10;;;;;;;;;;5029394;28;20083;-85
2021/05/13 09:32:20;;;;;;;5.43;3.97;;;;;;;;;;5031848;28;20044;-86
2021/05/13 09:34:47;;;;;;;5.50;3.75;;;;;;;;;;5026278;28;20063;-85
2021/05/13 09:37:13;;;;;;;5.40;3.50;;;;;;;;;;5040762;28;20038;-88
2021/05/13 09:39:49;;;;;;;4.55;3.05;;;;;;;;;;5032084;28;20452;-85
2021/05/13 09:42:19;;;;;;;4.30;3.05;;;;;;;;;;5036268;28;20021;-86
2021/05/13 09:44:49;;;;;;;4.90;3.17;;;;;;;;;;5030842;28;20014;-88
2021/05/13 09:47:16;;;;;;;4.18;2.70;;;;;;;;;;5017021;28;20032;-86
2021/05/13 09:50:02;;;;;;;5.50;3.50;;;;;;;;;;5047215;28;20030;-86
2021/05/13 09:52:41;;;;;;;5.57;3.15;;;;;;;;;;5019862;28;20033;-85
2021/05/13 09:55:12;;;;;;;5.30;2.80;;;;;;;;;;5024756;28;20484;-85
2021/05/13 09:57:38;;;;;;;4.38;3.17;;;;;;;;;;5029402;28;20024;-84
2021/05/13 10:00:06;;;;;;;6.38;2.47;;;;;;;;;;5022052;28;20033;-84
2021/05/13 10:02:32;;;;;;;4.88;3.20;;;;;;;;;;5016666;28;20109;-85
2021/05/13 10:04:59;;;;;;;155.65;105.63;;;;;;;;;;5048596;28;20049;-85
2021/05/13 10:07:26;;;;;;;15.60;10.43;;;;;;;;;;5024850;28;20029;-84
2021/05/13 10:09:52;;;;;;;4.50;2.95;;;;;;;;;;5044368;28;20027;-85
2021/05/13 10:12:18;;;;;;;3.50;2.30;;;;;;;;;;5035687;28;20803;-85
2021/05/13 10:14:44;;;;;;;3.97;2.33;;;;;;;;;;5030024;28;20079;-85
2021/05/13 10:17:11;;;;;;;3.45;2.17;;;;;;;;;;5030757;28;20481;-86
2021/05/13 10:19:44;;;;;;;3.40;2.35;;;;;;;;;;5018610;28;20029;-88
2021/05/13 10:22:14;;;;;;;3.03;1.98;;;;;;;;;;5016881;28;20025;-87
2021/05/13 10:24:40;;;;;;;4.10;2.03;;;;;;;;;;5035170;28;20052;-87
2021/05/13 10:27:16;;;;;;;2.78;2.00;;;;;;;;;;5035608;28;20392;-88
2021/05/13 10:29:42;;;;;;;2.78;1.92;;;;;;;;;;5035499;28;20025;-87
2021/05/13 10:32:15;;;;;;;2.55;1.85;;;;;;;;;;5034976;28;20112;-88
2021/05/13 10:34:41;;;;;;;2.88;1.85;;;;;;;;;;5025569;28;20580;-87
2021/05/13 10:37:27;;;;;;;3.05;1.83;;;;;;;;;;5029810;28;20033;-87
2021/05/13 10:40:12;;;;;;;2.75;1.88;;;;;;;;;;5028346;28;20038;-87
2021/05/13 10:42:39;;;;;;;2.47;1.60;;;;;;;;;;5024345;28;20519;-86
2021/05/13 10:45:37;;;;;;;2.15;1.50;;;;;;;;;;5022155;28;20026;-87
2021/05/13 10:48:23;;;;;;;2.97;1.40;;;;;;;;;;4973089;28;20087;-87
2021/05/13 10:51:03;;;;;;;2.72;1.40;;;;;;;;;;5021744;28;20044;-86
2021/05/13 10:53:39;;;;;;;1.70;1.27;;;;;;;;;;5023945;28;20055;-86
2021/05/13 10:56:25;;;;;;;2.08;1.20;;;;;;;;;;5030031;28;20127;-86
2021/05/13 10:59:04;;;;;;;1.75;1.30;;;;;;;;;;5015586;28;20014;-86
2021/05/13 11:01:53;;;;;;;3.85;1.33;;;;;;;;;;5021665;28;20037;-86
2021/05/13 11:04:22;;;;;;;2.05;1.30;;;;;;;;;;5017372;28;20087;-85
2021/05/13 11:07:07;;;;;;;1.27;1.05;;;;;;;;;;5022908;28;20033;-86
2021/05/13 11:09:39;;;;;;;2.30;1.08;;;;;;;;;;5032849;28;20041;-85
2021/05/13 11:12:14;;;;;;;1.85;1.10;;;;;;;;;;5043853;28;20552;-86
2021/05/13 11:15:14;;;;;;;1.30;1.10;;;;;;;;;;5030820;28;20403;-86
2021/05/13 11:18:00;;;;;;;2.70;1.30;;;;;;;;;;5030157;28;20079;-86
2021/05/13 11:20:40;;;;;;;2.42;1.45;;;;;;;;;;5020412;28;20026;-85
2021/05/13 11:23:06;;;;;;;1.63;1.08;;;;;;;;;;5025138;28;20112;-85
2021/05/13 11:25:39;;;;;;;1.92;1.40;;;;;;;;;;5044228;28;20045;-85
2021/05/13 11:28:21;;;;;;;1.35;0.93;;;;;;;;;;5068743;28;20028;-85
2021/05/13 11:30:49;;;;;;;2.17;1.30;;;;;;;;;;5065518;28;20538;-85
2021/05/13 11:33:17;;;;;;;1.85;1.20;;;;;;;;;;5066191;28;20031;-86
2021/05/13 11:35:44;;;;;;;1.75;1.20;;;;;;;;;;5064330;28;20397;-82
2021/05/13 11:38:16;;;;;;;1.50;1.17;;;;;;;;;;5064388;28;20021;-82
2021/05/13 11:40:42;;;;;;;3.05;1.35;;;;;;;;;;5067826;28;20116;-85
2021/05/13 11:43:22;;;;;;;1.45;1.20;;;;;;;;;;5063958;28;20028;-84
2021/05/13 11:45:48;;;;;;;3.90;1.20;;;;;;;;;;5070746;28;20020;-84
2021/05/13 11:48:21;;;;;;;1.83;1.15;;;;;;;;;;5074610;28;20028;-84
2021/05/13 11:50:48;;;;;;;2.00;1.38;;;;;;;;;;5071846;28;20032;-84
2021/05/13 11:53:15;;;;;;;1.42;0.95;;;;;;;;;;5071587;28;20051;-85
2021/05/13 11:55:42;;;;;;;3.78;1.23;;;;;;;;;;5071231;28;20027;-86
2021/05/13 11:58:09;;;;;;;4.15;1.20;;;;;;;;;;5070800;28;20481;-87
2021/05/13 12:00:35;;;;;;;3.45;1.50;;;;;;;;;;5057899;28;20024;-86
2021/05/13 12:03:37;;;;;;;2.80;1.52;;;;;;;;;;5064844;28;20032;-87
2021/05/13 12:06:03;;;;;;;6.10;1.70;;;;;;;;;;5065563;28;20028;-86
2021/05/13 12:08:29;;;;;;;2.28;1.60;;;;;;;;;;5063792;28;20029;-85
2021/05/13 12:10:56;;;;;;;1.98;1.50;;;;;;;;;;5064348;28;20063;-86
2021/05/13 12:13:27;;;;;;;3.45;2.08;;;;;;;;;;5057621;28;20491;-87
2021/05/13 12:16:02;;;;;;;1.75;1.25;;;;;;;;;;5067725;28;20072;-83
2021/05/13 12:18:29;;;;;;;4.20;2.88;;;;;;;;;;5065770;28;20098;-84
2021/05/13 12:20:55;;;;;;;6.72;3.88;;;;;;;;;;5054734;28;20067;-84
2021/05/13 12:23:21;;;;;;;2.08;1.33;;;;;;;;;;5061355;28;20066;-83
2021/05/13 12:25:47;;;;;;;1.70;1.20;;;;;;;;;;5064532;28;20132;-84
2021/05/13 12:28:13;;;;;;;4.30;1.55;;;;;;;;;;5059495;28;20543;-82
2021/05/13 12:30:39;;;;;;;1.58;1.45;;;;;;;;;;5061015;28;20048;-83
2021/05/13 12:33:21;;;;;;;4.15;1.63;;;;;;;;;;5065655;28;20025;-83
2021/05/13 12:35:50;;;;;;;2.47;1.45;;;;;;;;;;5073278;28;20420;-83
2021/05/13 12:38:17;;;;;;;1.60;1.38;;;;;;;;;;5063862;28;20024;-83
2021/05/13 12:40:44;;;;;;;5.43;1.80;;;;;;;;;;5064503;28;20443;-84
2021/05/13 12:43:11;;;;;;;5.35;1.48;;;;;;;;;;5058873;28;20515;-83
2021/05/13 12:45:47;;;;;;;2.55;1.48;;;;;;;;;;5070450;28;20051;-83
2021/05/13 12:48:23;;;;;;;5.63;1.60;;;;;;;;;;5062901;28;20393;-82
2021/05/13 12:51:03;;;;;;;3.50;2.17;;;;;;;;;;5058286;28;20021;-82
2021/05/13 12:53:33;;;;;;;2.22;1.40;;;;;;;;;;5059031;28;20136;-83
2021/05/13 12:55:59;;;;;;;2.15;1.42;;;;;;;;;;5061702;28;20053;-83
2021/05/13 12:58:27;;;;;;;1.58;1.00;;;;;;;;;;5066880;28;20123;-83
2021/05/13 13:01:03;;;;;;;1.40;1.02;;;;;;;;;;5069433;28;20028;-83
2021/05/13 13:03:34;;;;;;;16.58;9.85;;;;;;;;;;5067729;28;20033;-81
2021/05/13 13:06:07;;;;;;;2.03;1.27;;;;;;;;;;5057159;28;20013;-81
2021/05/13 13:08:37;;;;;;;2.65;1.85;;;;;;;;;;5066732;28;20035;-81
2021/05/13 13:11:03;;;;;;;2.58;1.33;;;;;;;;;;5061968;28;20099;-81
2021/05/13 13:13:36;;;;;;;2.15;1.48;;;;;;;;;;5061743;28;20028;-83
2021/05/13 13:16:14;;;;;;;1.40;1.00;;;;;;;;;;5065762;28;20025;-84
2021/05/13 13:18:40;;;;;;;1.45;1.17;;;;;;;;;;5057090;28;20111;-84
2021/05/13 13:21:14;;;;;;;1.63;1.15;;;;;;;;;;5073923;28;20697;-84
2021/05/13 13:23:40;;;;;;;;;;;;;;;;;;5058379;28;20043;-84
2021/05/13 13:26:07;;;;;;;2.00;1.42;;;;;;;;;;5054017;28;19917;-83
2021/05/13 13:28:34;;;;;;;1.30;1.20;;;;;;;;;;5058582;28;20025;-84
2021/05/13 13:31:04;;;;;;;1.85;1.00;;;;;;;;;;5068084;28;20020;-83
2021/05/13 13:33:32;;;;;;;2.67;0.80;;;;;;;;;;5060557;28;20048;-83
2021/05/13 13:35:58;;;;;;;3.63;1.20;;;;;;;;;;5068479;28;20519;-84
2021/05/13 13:38:25;;;;;;;1.85;0.93;;;;;;;;;;5070392;28;20025;-85
2021/05/13 13:40:52;;;;;;;3.47;1.60;;;;;;;;;;5066825;28;20473;-84
2021/05/13 13:43:18;;;;;;;1.20;0.77;;;;;;;;;;5061489;28;20017;-83
2021/05/13 13:45:44;;;;;;;1.95;1.35;;;;;;;;;;5073612;28;20017;-84
2021/05/13 13:48:13;;;;;;;0.82;0.77;;;;;;;;;;5066280;28;20047;-84
2021/05/13 13:50:40;;;;;;;1.67;0.88;;;;;;;;;;5065597;28;20063;-85
2021/05/13 13:53:06;;;;;;;1.55;1.00;;;;;;;;;;5066129;28;20037;-85
2021/05/13 13:55:33;;;;;;;2.80;1.00;;;;;;;;;;5061060;28;20079;-83
2021/05/13 13:57:59;;;;;;;1.02;0.90;;;;;;;;;;5063231;28;20058;-82
2021/05/13 14:00:25;;;;;;;0.95;0.68;;;;;;;;;;5062297;28;20021;-82
2021/05/13 14:02:51;;;;;;;0.80;0.77;;;;;;;;;;5063814;28;20021;-83
2021/05/13 14:05:18;;;;;;;0.98;0.80;;;;;;;;;;5063238;28;20111;-82
2021/05/13 14:07:44;;;;;;;1.33;0.90;;;;;;;;;;5064359;28;20039;-82
2021/05/13 14:10:11;;;;;;;2.25;0.80;;;;;;;;;;5071430;28;20017;-83
2021/05/13 14:12:38;;;;;;;2.38;0.80;;;;;;;;;;5072077;28;20057;-84
2021/05/13 14:15:04;;;;;;;0.75;0.75;;;;;;;;;;5068328;28;20028;-84
2021/05/13 14:17:30;;;;;;;1.75;0.90;;;;;;;;;;5058125;28;20120;-84
2021/05/13 14:19:56;;;;;;;1.13;0.80;;;;;;;;;;5057920;28;20017;-84
2021/05/13 14:22:22;;;;;;;0.80;0.70;;;;;;;;;;5057692;28;20039;-84
2021/05/13 14:24:48;;;;;;;1.00;0.90;;;;;;;;;;5060282;28;20105;-84
2021/05/13 14:27:14;;;;;;;1.15;0.82;;;;;;;;;;5066408;28;20480;-84
2021/05/13 14:29:40;;;;;;;1.17;1.00;;;;;;;;;;5059528;28;20062;-85
2021/05/13 14:32:06;;;;;;;1.10;1.00;;;;;;;;;;5055458;28;20021;-84
2021/05/13 14:34:32;;;;;;;2.15;1.10;;;;;;;;;;5058820;28;20044;-84
2021/05/13 14:36:58;;;;;;;5.40;0.80;;;;;;;;;;5065180;28;20121;-85
2021/05/13 14:39:24;;;;;;;1.20;0.80;;;;;;;;;;5056728;28;20060;-85
2021/05/13 14:41:50;;;;;;;1.42;0.80;;;;;;;;;;5055091;28;20016;-85
2021/05/13 14:44:16;;;;;;;2.22;1.00;;;;;;;;;;5069957;28;20411;-83
2021/05/13 14:46:43;;;;;;;0.70;0.70;;;;;;;;;;5068130;28;20029;-84
2021/05/13 14:49:12;;;;;;;0.63;0.60;;;;;;;;;;5066844;28;20029;-84
2021/05/13 14:51:38;;;;;;;0.73;0.70;;;;;;;;;;5060352;28;20033;-84
2021/05/13 14:54:05;;;;;;;1.23;0.95;;;;;;;;;;5060596;28;20055;-84